KSAV/SAV METAR and TAF weather

Enter ICAO airport designator
Station Type Date Time Source
KSAV METAR 2020/10/20 16:53 UTC NOAA

KSAV 201653Z 33004KT 10SM FEW015 BKN210 OVC250 24/20 A3017 RMK AO2 SLP217 T02440200


Station Type Date Time Source
KSAV Decoded METAR 2020/10/20 16:53 UTC NOAA

SAVANNAH INTERNATIONAL AIRPORT , GA, United States (KSAV) 32-07N 81-12W 14M
Oct 20, 2020 - 12:53 PM EDT / 2020.10.20 1653 UTC
Wind: from the NNW (330 degrees) at 5 MPH (4 KT):0
Visibility: 10 mile(s):0
Sky conditions: overcast
Temperature: 75.9 F (24.4 C)
Dew Point: 68.0 F (20.0 C)
Relative Humidity: 76%
Pressure (altimeter): 30.17 in. Hg (1021 hPa)
ob: KSAV 201653Z 33004KT 10SM FEW015 BKN210 OVC250 24/20 A3017 RMK AO2 SLP217 T02440200
cycle: 17

Station Type Date Time Source
KSAV TAF 2020/10/20 18:54 UTC NOAA

TAF KSAV 201751Z 2018/2118 01008KT P6SM FEW025 BKN200
FM210700 04004KT 3SM BR SCT005 OVC015
FM211400 07007KT P6SM SCT015 BKN025

Example: see airport list